Morris, AL (35116)

11:59 PM CST on November 25, 2014 (GMT -0600)
Doss Ferry / NJMS | Change Station
CLOSE
Current Station
Personal Weather Station
Location: Kimberly, AL
Elevation: 453 ft
Nearby Weather Stations

Elev 453 ft 33.78 °N, 86.80 °W | Updated 33 seconds ago

Overcast
Overcast
45.1 °F
Feels Like 45 °F
N
0.0
Wind Variable Wind from ESE
Gusts 0.0 mph

Today
High -- | Low -- °F
--% Chance of Precip.
Yesterday
High -- | Low -- °F
Precip. -- in
6:28 AM 4:39 PM
Waxing Crescent, 17% visible
Pressure 30.11 in
Visibility 10.0 miles
Clouds Mostly Cloudy 9000 ft
Overcast 10000 ft
Windchill 45 °F
Dew Point 32 °F
Humidity 59%
Rainfall 0.00 in
Snow Depth Not available.
UV 0 out of 12
Pollen 1.10 out of 12
Air Quality Not available.
Flu Activity Not available.
METAR KBHM 260553Z 35006KT 10SM BKN090 OVC100 07/M02 A3011 RMK AO2 SLP195 T00721022 10111 20072 401500050 58005

More Conditions Fewer Conditions

Pressure 30.11 in
Visibility 10.0 miles
Clouds Mostly Cloudy 9000 ft
Overcast 10000 ft
Windchill 45 °F
Dew Point 32 °F
Humidity 59%
Rainfall 0.00 in
Snow Depth Not available.
UV 0 out of 12
Pollen 1.10 out of 12
Air Quality Not available.
Flu Activity Not available.
METAR KBHM 260553Z 35006KT 10SM BKN090 OVC100 07/M02 A3011 RMK AO2 SLP195 T00721022 10111 20072 401500050 58005

More Conditions Fewer Conditions

10-Day Weather Forecast

Almanac

Astronomy

Nov. 25, 2014 Rise Set
Actual Time
Civil Twilight
Nautical Twilight
Astronomical Twilight
Moon
Length of Visible Light
Length of Day
Tomorrow will be .
, % of the Moon is Illuminated

Today's Extremes

State Highs State Lows

Community

WunderPhotos

Upload Photos

1,773,683 photos uploaded!

WunderBlogs® & News

Nearby

Air Quality

  Air Quality AQ Index Pollutant
Not available.

Snow Depth

Station Depth Elevation

Earthquake Activity

City Distance Mag. Time & Date
Minimum magnitude displayed is 2.5.

Coastal Water Temperatures

Place Temperature

Nearby Weather Stations